TOURFACTS.DK  
Stats and Facts from Tour de France.

Tour de France 2019 starts in 320 days
  Riders   Stages   Teams   Summits   Yearly  


 
Search by year

After 2018 - Stage 21:
 15000 starters.
  5165 different riders.
  638 teams.
  2253 stages.
  456 restdays.
  442940.60 km.
  5684 abandonnees.


Top 3
GC
Geraint Thomas83:17:13
Tom Dumoulin83:19:04
Christopher Froome83:19:37
Climb
Julian Alaphilippe170 pt.
Warren Barguil91 pt.
Rafal Majka76 pt.
Sprint
Peter Sagan477 pt.
Alexander Kristoff246 pt.
Arnaud Démare203 pt.
Youth
Pierre-Roger Latou..83:39:26
Egan Bernal83:45:05
Guillaume Martin84:01:31
Facts from Tour de France 2017
  |   Stages.  |   Stage winners.  |   Days in yellow  |   Average speed.  |   Route.  |   Teams.  |   All riders.  |   Rookies.  |  

  |   Withdrawls.  |   GC.  |   Polka  |   Green  |   White  |   Summits. (In tour)  |   Miscellaneous.  |  

Stage 20 on 22 - 07 - 2017
         Owning:    Christopher Froome      Warren Barguil      Michael Matthews      Simon Yates  

Pick a stage:  1 2 3 4 5 6 7 8 9 10 11 12 13 14 15 16 17 18 19 20 21
  MarseilleMarseille | Dist: 22.50 km.

Average speed for all riders in stage:  43,851 km./hr.
    Place:Name:Team:Time:Km/h:
1
POLMaciej BodnarDEUBora–Hansgrohe00:28:15  +  00:00:00=47,788 
2
POLMichal KwiatkowskiGBRSky Procycling00:28:16  +  00:00:01=47,759 
3
KENChristopher FroomeGBRSky Procycling00:28:21  +  00:00:06=47,619 
44 GERTony MartinCHETeam Katusha - Alpecin00:28:29  +  00:00:14=47,396 
55 RSADaryl ImpeyAUSOrica - Scott00:28:35  +  00:00:20=47,230 
66 ESPAlberto ContadorUSATrek - Segafredo00:28:36  +  00:00:21=47,203 
77 GERNikias ArndtDEUTeam Sunweb00:28:43  +  00:00:28=47,011 
88 COLRigoberto UránUSACannondale-Drapac Pro Cycling ..00:28:46  +  00:00:31=46,929 
99 SUIStefan KüngUSABMC Racing Team00:28:49  +  00:00:34=46,848 
1010 FRASylvain ChavanelFRADirect Energie00:28:52  +  00:00:37=46,767 
1111 NZLJack BauerBELQuick-Step Floors00:28:56  +  00:00:41=46,659 
1212 GERJasha SütterlinESPMovistar Team00:28:57  +  00:00:42=46,632 
1313 GERNils PolittCHETeam Katusha - Alpecin00:28:58  +  00:00:43=46,605 
1414 SLOPrimoz RoglicNLDTeam Lotto NL - Jumbo00:29:04  +  00:00:49=46,445 
1515 ESPMikel Landa MeanaGBRSky Procycling00:29:06  +  00:00:51=46,392 
1616 FRATony GallopinBELLotto Soudal00:29:11  +  00:00:56=46,259 
1717 USATaylor PhinneyUSACannondale-Drapac Pro Cycling ..00:29:21  +  00:01:06=45,997 
1818 BLRVasil KiryienkaGBRSky Procycling00:29:22  +  00:01:07=45,970 
1919 FRAWarren BarguilDEUTeam Sunweb00:29:24  +  00:01:09=45,918 
2020 FRAAlexis VuillermozFRAAg2r La Mondiale00:29:26  +  00:01:11=45,866 
2121 ITADamiano CarusoUSABMC Racing Team00:29:00  +  00:00:45=46,552 
2222 ITAFabio AruKAZAstana Pro Team00:29:00  +  00:00:45=46,552 
2323 BELTiesj BenootBELLotto Soudal00:29:36  +  00:01:21=45,608 
2424 NEDDylan Van BaarleUSACannondale-Drapac Pro Cycling ..00:29:37  +  00:01:22=45,582 
2525 FRANicolas RocheUSABMC Racing Team00:29:40  +  00:01:25=45,506 
2626 ESPImanol ErvitiESPMovistar Team00:29:41  +  00:01:26=45,480 
2727 FRALilian CalmejaneFRADirect Energie00:29:42  +  00:01:27=45,455 
2828 ESPJonathan CastroviejoESPMovistar Team00:29:42  +  00:01:27=45,455 
2929 DENLars BakBELLotto Soudal00:29:42  +  00:01:27=45,455 
3030 COLCarlos Alberto BetancurESPMovistar Team00:29:43  +  00:01:28=45,429 
3131 AUSJay McCarthyDEUBora–Hansgrohe00:29:43  +  00:01:28=45,429 
3232 ENGSimon YatesAUSOrica - Scott00:29:49  +  00:01:34=45,277 
3333 RSALouis MeintjesUAEUAE Team Emirates00:29:49  +  00:01:34=45,277 
3434 NEDBauke MollemaUSATrek - Segafredo00:29:51  +  00:01:36=45,226 
3535 KAZAlexey LutsenkoKAZAstana Pro Team00:29:51  +  00:01:36=45,226 
3636 COLNairo QuintanaESPMovistar Team00:29:57  +  00:01:42=45,075 
3737 BELThomas De GendtBELLotto Soudal00:30:01  +  00:01:46=44,975 
3838 FRABrice FeilluFRAFortuneo - Vital Concept00:30:01  +  00:01:46=44,975 
3939 CZEZdenek StybarBELQuick-Step Floors00:30:02  +  00:01:47=44,950 
4040 ENGDaniel MartinBELQuick-Step Floors00:30:07  +  00:01:52=44,826 
4141 FRAMaxime BouetFRAFortuneo - Vital Concept00:30:07  +  00:01:52=44,826 
4242 ITADiego UlissiUAEUAE Team Emirates00:30:07  +  00:01:52=44,826 
4343 SUIDanilo WyssUSABMC Racing Team00:30:07  +  00:01:52=44,826 
4444 LUXBen GastauerFRAAg2r La Mondiale00:30:07  +  00:01:52=44,826 
4545 FRANicolas EdetFRACofidis – Solutions Crédits00:30:09  +  00:01:54=44,776 
4646 NEDAlbert TimmerDEUTeam Sunweb00:30:11  +  00:01:56=44,727 
4747 AUSDamien HowsonAUSOrica - Scott00:30:11  +  00:01:56=44,727 
4848 ESPHaimar ZubeldiaUSATrek - Segafredo00:30:11  +  00:01:56=44,727 
4949 KAZAndrey ZeitsKAZAstana Pro Team00:30:13  +  00:01:58=44,677 
5050 FRARomain SicardFRADirect Energie00:30:16  +  00:02:01=44,604 
5151 BELJan BakelantsFRAAg2r La Mondiale00:30:16  +  00:02:01=44,604 
5252 FRARomain BardetFRAAg2r La Mondiale00:30:18  +  00:02:03=44,554 
5353 BELJulien VermoteBELQuick-Step Floors00:30:18  +  00:02:03=44,554 
5454 FRAFlorian VachonFRAFortuneo - Vital Concept00:30:22  +  00:02:07=44,457 
5555 FRAAmaël MoinardUSABMC Racing Team00:30:23  +  00:02:08=44,432 
5656 DENMichael ValgrenKAZAstana Pro Team00:30:25  +  00:02:10=44,384 
5757 UKRAndriy GrivkoKAZAstana Pro Team00:30:25  +  00:02:10=44,384 
5858 BELSerge PauwelsZAFDimension Data00:30:26  +  00:02:11=44,359 
5959 ITAMarco MarcatoUAEUAE Team Emirates00:30:26  +  00:02:11=44,359 
6060 KAZDmitriy GruzdevKAZAstana Pro Team00:30:00  +  00:01:45=45,000 
6161 SUIMichael SchärUSABMC Racing Team00:30:00  +  00:01:45=45,000 
6262 FRAPierre-Roger LatourFRAAg2r La Mondiale00:30:00  +  00:01:45=45,000 
6363 FRAElie GesbertFRAFortuneo - Vital Concept00:30:00  +  00:01:45=45,000 
6464 GERRobert WagnerNLDTeam Lotto NL - Jumbo00:30:34  +  00:02:19=44,166 
6565 CZERoman KreuzigerAUSOrica - Scott00:30:34  +  00:02:19=44,166 
6666 FRARomain HardyFRAFortuneo - Vital Concept00:30:34  +  00:02:19=44,166 
6767 USAAndrew TalanskyUSACannondale-Drapac Pro Cycling ..00:30:35  +  00:02:20=44,142 
6868 ESPMikel NieveGBRSky Procycling00:30:38  +  00:02:23=44,070 
6969 PORTiago PintoCHETeam Katusha - Alpecin00:30:40  +  00:02:25=44,022 
7070 BELThomas DegandBELWanty – Groupe Gobert00:30:40  +  00:02:25=44,022 
7171 FRAAxel DomontFRAAg2r La Mondiale00:30:40  +  00:02:25=44,022 
7272 GEREmanuel BuchmannDEUBora–Hansgrohe00:30:41  +  00:02:26=43,998 
7373 GERMarcus BurghardtDEUBora–Hansgrohe00:30:41  +  00:02:26=43,998 
7474 SUIMichael AlbasiniAUSOrica - Scott00:30:41  +  00:02:26=43,998 
7575 FRAJulien SimonFRACofidis – Solutions Crédits00:30:42  +  00:02:27=43,974 
7676 BELJens KeukeleireAUSOrica - Scott00:30:43  +  00:02:28=43,950 
7777 ESPMarkel IrizarUSATrek - Segafredo00:30:43  +  00:02:28=43,950 
7878 AUSMichael MatthewsDEUTeam Sunweb00:30:45  +  00:02:30=43,902 
7979 BELFrederik BackaertBELWanty – Groupe Gobert00:30:45  +  00:02:30=43,902 
8080 SUIReto HollensteinCHETeam Katusha - Alpecin00:30:47  +  00:02:32=43,855 
8181 BELPieter VanspeybrouckBELWanty – Groupe Gobert00:30:48  +  00:02:33=43,831 
8282 NEDMike TeunissenDEUTeam Sunweb00:30:49  +  00:02:34=43,807 
8383 FRAPierre-Luc PérichonFRAFortuneo - Vital Concept00:30:49  +  00:02:34=43,807 
8484 GERGianluca BrambillaBELQuick-Step Floors00:30:50  +  00:02:35=43,784 
8585 GERPaul MartensNLDTeam Lotto NL - Jumbo00:30:51  +  00:02:36=43,760 
8686 BELGreg Van AvermaetUSABMC Racing Team00:30:51  +  00:02:36=43,760 
8787 ITAAlberto BettiolUSACannondale-Drapac Pro Cycling ..00:30:51  +  00:02:36=43,760 
8888 POLPawel PoljanskiDEUBora–Hansgrohe00:30:59  +  00:02:44=43,572 
8989 NEDRamon SinkeldamDEUTeam Sunweb00:30:59  +  00:02:44=43,572 
9090 FRARudy MolardFRAFDJ00:30:59  +  00:02:44=43,572 
9191 NEDKoen De KortUSATrek - Segafredo00:31:00  +  00:02:45=43,548 
9292 ENGScott ThwaitesZAFDimension Data00:31:01  +  00:02:46=43,525 
9393 FRAAngelo TulikFRADirect Energie00:31:02  +  00:02:47=43,502 
9494 FRACyril LemoineFRACofidis – Solutions Crédits00:31:02  +  00:02:47=43,502 
9595 GERSimon GeschkeDEUTeam Sunweb00:31:02  +  00:02:47=43,502 
9696 ITAAlessandro De MarchiUSABMC Racing Team00:31:05  +  00:02:50=43,432 
9797 ITAFabio SabatiniBELQuick-Step Floors00:31:05  +  00:02:50=43,432 
9898 ITADaniele BennatiESPMovistar Team00:31:05  +  00:02:50=43,432 
9999 SLOGrega BoleBHRBahrain-Merida00:31:09  +  00:02:54=43,339 
100100 FRAChristophe LaporteFRACofidis – Solutions Crédits00:31:09  +  00:02:54=43,339 
101101 WALLuke RoweGBRSky Procycling00:31:09  +  00:02:54=43,339 
102102 FRACyril GautierFRAAg2r La Mondiale00:31:11  +  00:02:56=43,292 
103103 FRAFlorian SénéchalFRACofidis – Solutions Crédits00:31:15  +  00:03:00=43,200 
104104 ITASonny ColbrelliBHRBahrain-Merida00:31:15  +  00:03:00=43,200 
105105 BELGuillaume Van KeirsbulckBELWanty – Groupe Gobert00:31:19  +  00:03:04=43,108 
106106 ESPDaniel NavarroFRACofidis – Solutions Crédits00:31:20  +  00:03:05=43,085 
107107 FRAGuillaume MartinBELWanty – Groupe Gobert00:31:20  +  00:03:05=43,085 
108108 JPNYukiya ArashiroBHRBahrain-Merida00:31:20  +  00:03:05=43,085 
109109 FRALaurent PichonFRAFortuneo - Vital Concept00:31:22  +  00:03:07=43,039 
110110 GERChristian KneesGBRSky Procycling00:31:22  +  00:03:07=43,039 
111111 DDRRüdiger SeligDEUBora–Hansgrohe00:31:22  +  00:03:07=43,039 
112112 NOREdvald Boasson HagenZAFDimension Data00:31:22  +  00:03:07=43,039 
113113 SUIMathias FrankFRAAg2r La Mondiale00:31:23  +  00:03:08=43,016 
114114 ESPJesus HerradaESPMovistar Team00:31:24  +  00:03:09=42,994 
115115 ARGEduardo SepulvedaFRAFortuneo - Vital Concept00:31:25  +  00:03:10=42,971 
116116 BELJürgen RoelandtsBELLotto Soudal00:31:26  +  00:03:11=42,948 
117117 ESPLuis Angel MateFRACofidis – Solutions Crédits00:31:00  +  00:02:45=43,548 
118118 NEDMarco MinnaardBELWanty – Groupe Gobert00:31:00  +  00:02:45=43,548 
119119 GERRick ZabelCHETeam Katusha - Alpecin00:31:00  +  00:02:45=43,548 
120120 NZLPaddy BevinUSACannondale-Drapac Pro Cycling ..00:31:35  +  00:03:20=42,744 
121121 FRAYoann OffredoBELWanty – Groupe Gobert00:31:36  +  00:03:21=42,722 
122122 AUSSimon ClarkeUSACannondale-Drapac Pro Cycling ..00:31:37  +  00:03:22=42,699 
123123 SLOJanez BrajkovicBHRBahrain-Merida00:31:37  +  00:03:22=42,699 
124124 GERAndré GreipelBELLotto Soudal00:31:37  +  00:03:22=42,699 
125125 NEDMaurits LammertinkCHETeam Katusha - Alpecin00:31:38  +  00:03:23=42,677 
126126 AUTMichael GoglUSATrek - Segafredo00:31:39  +  00:03:24=42,654 
127127 FRAPerrig QuemeneurFRADirect Energie00:31:40  +  00:03:25=42,632 
128128 KAZBakhtiyar KozhatayevKAZAstana Pro Team00:31:40  +  00:03:25=42,632 
129129 USANathan BrownUSACannondale-Drapac Pro Cycling ..00:31:40  +  00:03:25=42,632 
130130 FRAOlivier Le GacFRAFDJ00:31:40  +  00:03:25=42,632 
131131 ITAAndrea PasqualonBELWanty – Groupe Gobert00:31:41  +  00:03:26=42,609 
132132 HRVKristijan DurasekUAEUAE Team Emirates00:31:42  +  00:03:27=42,587 
133133 COLSergio Luis HenaoGBRSky Procycling00:31:42  +  00:03:27=42,587 
134134 NZLDion SmithBELWanty – Groupe Gobert00:31:42  +  00:03:27=42,587 
135135 NORVegard Stake LaengenUAEUAE Team Emirates00:31:42  +  00:03:27=42,587 
136136 ENGStephen CummingsZAFDimension Data00:31:45  +  00:03:30=42,520 
137137 HRVRobert KiserlovskiCHETeam Katusha - Alpecin00:31:46  +  00:03:31=42,497 
138138 NEDLaurens ten DamDEUTeam Sunweb00:31:46  +  00:03:31=42,497 
139139 ITADavide CimolaiFRAFDJ00:31:47  +  00:03:32=42,475 
140140 SLOBorut BozicBHRBahrain-Merida00:31:53  +  00:03:38=42,342 
141141 FRAThomas VoecklerFRADirect Energie00:31:55  +  00:03:40=42,298 
142142 RSAJaco VenterZAFDimension Data00:31:55  +  00:03:40=42,298 
143143 BELOliver NaesenFRAAg2r La Mondiale00:31:56  +  00:03:41=42,276 
144144 GERJohn DegenkolbUSATrek - Segafredo00:31:59  +  00:03:44=42,209 
145145 NEDDylan GroenewegenNLDTeam Lotto NL - Jumbo00:32:02  +  00:03:47=42,144 
146146 FRAPierre RollandUSACannondale-Drapac Pro Cycling ..00:32:04  +  00:03:49=42,100 
147147 FRAAdrien PetitFRADirect Energie00:32:04  +  00:03:49=42,100 
148148 RSAReinardt Janse Van RensburgZAFDimension Data00:32:06  +  00:03:51=42,056 
149149 ETHTsgabu Gebremaryan GrmayBHRBahrain-Merida00:32:06  +  00:03:51=42,056 
150150 FRAThomas BoudatFRADirect Energie00:32:08  +  00:03:53=42,012 
151151 AUTBernhard EiselZAFDimension Data00:32:12  +  00:03:57=41,925 
152152 AUSAdam HansenBELLotto Soudal00:32:13  +  00:03:58=41,904 
153153 AUTMarco HallerCHETeam Katusha - Alpecin00:32:13  +  00:03:58=41,904 
154154 ENGBen SwiftUAEUAE Team Emirates00:32:14  +  00:03:59=41,882 
155155 FRAYohann GèneFRADirect Energie00:32:20  +  00:04:05=41,753 
156156 COLDarwin AtapumaUAEUAE Team Emirates00:32:21  +  00:04:06=41,731 
157157 AUSMathew HaymanAUSOrica - Scott00:32:24  +  00:04:09=41,667 
158158 COLJohan Esteban ChavesAUSOrica - Scott00:32:26  +  00:04:11=41,624 
159159 NEDRoy CurversDEUTeam Sunweb00:32:26  +  00:04:11=41,624 
160160 FRANacer BouhanniFRACofidis – Solutions Crédits00:32:38  +  00:04:23=41,369 
161161 NEDTom LeezerNLDTeam Lotto NL - Jumbo00:32:39  +  00:04:24=41,348 
162162 BELDimitri ClaeysFRACofidis – Solutions Crédits00:32:39  +  00:04:24=41,348 
163163 CRCAndrey AmadorESPMovistar Team00:32:40  +  00:04:25=41,327 
164164 NORAlexander KristoffCHETeam Katusha - Alpecin00:32:47  +  00:04:32=41,179 
165165 ESPJavier Moreno BazánBHRBahrain-Merida00:32:53  +  00:04:38=41,054 
166166 ITAMatteo BonoUAEUAE Team Emirates00:33:00  +  00:04:45=40,909 
167167 COLJarlinson Pantano GomezUSATrek - Segafredo00:33:25  +  00:05:10=40,399 

Todays birthdays.

1878  Jean Novo
1883  Jules Chabas
1890  Ange Aubry
1893  Roger Marye
1913  Paul Maye
1914  Lucien Vlaemynck
1915  Alphonse Antoine
1932  Rolf Graf
1953  Julio Rubiano
1959  Jos Haex
1959  Gerard Veldscholten
1963  Pablo Moreno
1964  Juan Castillo
1977  Iban Mayo
1994  Fernando Gaviria